Time;durP1;ratioP1;P1;durP2;ratioP2;P2;SDS_P1;SDS_P2;PMS_P1;PMS_P2;Temp;Humidity;BMP_temperature;BMP_pressure;BME280_temperature;BME280_humidity;BME280_pressure;Samples;Min_cycle;Max_cycle;Signal;HPM_P1;HPM_P2
2022/07/02 00:00:58;;;;;;;;;;;;;;;28.93;47.20;98794.94;2088331;28;20266;-50
2022/07/02 00:02:00;;;;;;;;;;;;;;;28.91;47.30;98791.66;2091546;28;19925;-53
2022/07/02 00:03:02;;;;;;;;;;;;;;;28.92;47.39;98797.97;2091909;28;20543;-50
2022/07/02 00:04:04;;;;;;;;;;;;;;;28.92;47.39;98796.06;2085129;28;19928;-53
2022/07/02 00:05:06;;;;;;;;;;;;;;;28.92;47.23;98803.44;2084501;28;19932;-53
2022/07/02 00:06:09;;;;;;;;;;;;;;;28.92;47.39;98796.06;2087893;28;19932;-52
2022/07/02 00:07:09;;;;;;;;;;;;;;;28.90;47.40;98795.50;2084700;28;19932;-53
2022/07/02 00:08:11;;;;;;;;;;;;;;;28.92;47.36;98797.97;2088361;28;20487;-53
2022/07/02 00:09:12;;;;;;;;;;;;;;;28.92;47.50;98800.69;2091058;28;20354;-52
2022/07/02 00:10:14;;;;;;;;;;;;;;;28.90;47.36;98794.66;2090714;28;19932;-50
2022/07/02 00:11:16;;;;;;;;;;;;;;;28.90;47.61;98795.50;2089560;28;19928;-52
2022/07/02 00:12:18;;;;;;;;;;;;;;;28.90;47.16;98797.41;2088588;28;20026;-54
2022/07/02 00:13:18;;;;;;;;;;;;;;;28.91;47.38;98801.75;2085925;28;21660;-52
2022/07/02 00:14:20;;;;;;;;;;;;;;;28.91;47.36;98796.31;2090733;28;20051;-52
2022/07/02 00:15:21;;;;;;;;;;;;;;;28.91;47.21;98799.03;2088440;28;19929;-53
2022/07/02 00:16:23;;;;;;;;;;;;;;;28.91;47.45;98802.56;2087851;28;19932;-51
2022/07/02 00:17:25;;;;;;;;;;;;;;;28.92;47.34;98800.69;2086106;28;19928;-55
2022/07/02 00:18:27;;;;;;;;;;;;;;;28.92;47.35;98803.44;2085476;28;19928;-53
2022/07/02 00:19:28;;;;;;;;;;;;;;;28.91;47.29;98807.22;2090101;28;19932;-52
2022/07/02 00:20:31;;;;;;;;;;;;;;;28.90;47.23;98800.13;2086344;28;20002;-52
2022/07/02 00:21:32;;;;;;;;;;;;;;;28.90;47.39;98805.59;2085591;28;19928;-54
2022/07/02 00:22:34;;;;;;;;;;;;;;;28.90;47.29;98805.59;2086687;28;20553;-51
2022/07/02 00:23:34;;;;;;;;;;;;;;;28.90;47.38;98805.59;2091842;28;19932;-52
2022/07/02 00:24:39;;;;;;;;;;;;;;;28.90;47.35;98805.59;2091741;28;19932;-53
2022/07/02 00:25:41;;;;;;;;;;;;;;;28.90;47.19;98800.13;2087760;28;20062;-51
2022/07/02 00:26:47;;;;;;;;;;;;;;;28.90;47.39;98791.94;2088237;28;19928;-52
2022/07/02 00:27:47;;;;;;;;;;;;;;;28.89;47.46;98798.47;2086398;28;19931;-53
2022/07/02 00:28:54;;;;;;;;;;;;;;;28.89;47.46;98798.47;2085168;28;20019;-54
2022/07/02 00:29:57;;;;;;;;;;;;;;;28.89;47.42;98793.00;2087248;28;19935;-51
2022/07/02 00:30:59;;;;;;;;;;;;;;;28.89;47.35;98793.84;2086234;28;20043;-52
2022/07/02 00:31:59;;;;;;;;;;;;;;;28.89;47.42;98790.28;2087487;28;19978;-51
2022/07/02 00:33:02;;;;;;;;;;;;;;;28.88;47.42;98785.91;2085247;28;19972;-49
2022/07/02 00:34:04;;;;;;;;;;;;;;;28.87;47.25;98790.56;2090590;28;20030;-53
2022/07/02 00:35:09;;;;;;;;;;;;;;;28.87;47.39;98795.22;2089356;28;19932;-52
2022/07/02 00:36:21;;;;;;;;;;;;;;;28.88;47.41;98791.38;2088145;28;19940;-52
2022/07/02 00:37:23;;;;;;;;;;;;;;;28.88;47.39;98796.84;2086885;28;19932;-53
2022/07/02 00:38:24;;;;;;;;;;;;;;;28.87;47.40;98785.09;2080975;28;19928;-50
2022/07/02 00:39:26;;;;;;;;;;;;;;;28.86;47.40;98799.84;2084050;28;21008;-51
2022/07/02 00:40:27;;;;;;;;;;;;;;;28.88;47.66;98791.38;2086827;28;20544;-51
2022/07/02 00:41:28;;;;;;;;;;;;;;;28.88;47.43;98792.19;2082138;28;19933;-55
2022/07/02 00:42:30;;;;;;;;;;;;;;;28.88;47.22;98788.66;2085545;28;20433;-51
2022/07/02 00:43:32;;;;;;;;;;;;;;;28.89;47.39;98793.00;2085678;28;19928;-51
2022/07/02 00:44:33;;;;;;;;;;;;;;;28.88;47.26;98794.94;2086418;28;19940;-54
2022/07/02 00:45:35;;;;;;;;;;;;;;;28.88;47.52;98796.84;2084568;28;20381;-52
2022/07/02 00:46:36;;;;;;;;;;;;;;;28.88;47.37;98791.38;2087649;28;19929;-51
2022/07/02 00:47:39;;;;;;;;;;;;;;;28.86;47.40;98799.00;2082405;28;19986;-53
2022/07/02 00:48:42;;;;;;;;;;;;;;;28.86;47.50;98796.28;2082714;28;19928;-52
2022/07/02 00:49:44;;;;;;;;;;;;;;;28.86;47.52;98794.41;2087152;28;19929;-51
2022/07/02 00:50:44;;;;;;;;;;;;;;;28.87;47.45;98801.47;2085635;28;19935;-54
2022/07/02 00:51:46;;;;;;;;;;;;;;;28.88;47.52;98797.66;2086948;28;20603;-51
2022/07/02 00:52:47;;;;;;;;;;;;;;;28.87;47.31;98801.47;2084189;28;19936;-53
2022/07/02 00:53:49;;;;;;;;;;;;;;;28.87;47.15;98801.47;2086016;28;20448;-52
2022/07/02 00:54:49;;;;;;;;;;;;;;;28.88;47.34;98802.31;2083715;28;19982;-52
2022/07/02 00:55:55;;;;;;;;;;;;;;;28.86;47.37;98799.84;2088970;28;19928;-50
2022/07/02 00:56:56;;;;;;;;;;;;;;;28.87;47.62;98800.66;2085414;28;19951;-51
2022/07/02 00:57:58;;;;;;;;;;;;;;;28.86;47.41;98809.94;2084981;28;19935;-54
2022/07/02 00:58:58;;;;;;;;;;;;;;;28.86;47.35;98799.00;2082842;28;20571;-52
2022/07/02 01:00:00;;;;;;;;;;;;;;;28.87;47.55;98801.47;2084424;28;19943;-52
2022/07/02 01:01:01;;;;;;;;;;;;;;;28.87;47.44;98806.13;2090086;28;19939;-53
2022/07/02 01:02:04;;;;;;;;;;;;;;;28.86;47.48;98808.03;2089166;28;20638;-54
2022/07/02 01:03:05;;;;;;;;;;;;;;;28.86;47.27;98799.00;2089736;28;20027;-52
2022/07/02 01:04:09;;;;;;;;;;;;;;;28.87;47.35;98798.75;2088906;28;20378;-48
2022/07/02 01:05:10;;;;;;;;;;;;;;;28.84;47.56;98802.03;2087055;28;20652;-55
2022/07/02 01:06:12;;;;;;;;;;;;;;;28.84;47.41;98804.75;2086337;28;19928;-54
2022/07/02 01:07:13;;;;;;;;;;;;;;;28.83;47.34;98805.00;2085057;28;19928;-54
2022/07/02 01:10:57;;;;;;;;;;;;;;;28.84;47.55;98796.56;2083893;28;19925;-53
2022/07/02 01:11:58;;;;;;;;;;;;;;;28.84;47.22;98803.94;2086937;28;19935;-52
2022/07/02 01:13:00;;;;;;;;;;;;;;;28.85;47.46;98797.38;2085126;28;19955;-50
2022/07/02 01:14:02;;;;;;;;;;;;;;;28.85;47.32;98802.84;2089685;28;20651;-51
2022/07/02 01:15:04;;;;;;;;;;;;;;;28.86;47.35;98805.31;2084629;28;21859;-51
2022/07/02 01:16:04;;;;;;;;;;;;;;;28.84;47.50;98796.56;2084634;28;19943;-50
2022/07/02 01:17:06;;;;;;;;;;;;;;;28.84;47.55;98803.94;2084213;28;20898;-49
2022/07/02 01:18:07;;;;;;;;;;;;;;;28.84;47.53;98799.28;2086980;28;20384;-51
2022/07/02 01:19:11;;;;;;;;;;;;;;;28.84;47.32;98798.47;2083645;28;19932;-55
2022/07/02 01:20:12;;;;;;;;;;;;;;;28.84;47.40;98803.94;2085046;28;19944;-47
2022/07/02 01:21:13;;;;;;;;;;;;;;;28.84;47.35;98812.13;2085366;28;20099;-51
2022/07/02 01:22:16;;;;;;;;;;;;;;;28.84;47.44;98807.47;2082606;28;19928;-51
2022/07/02 01:23:18;;;;;;;;;;;;;;;28.84;47.36;98803.94;2084948;28;19928;-49
2022/07/02 01:24:23;;;;;;;;;;;;;;;28.84;47.30;98807.47;2084607;28;19928;-50
2022/07/02 01:25:24;;;;;;;;;;;;;;;28.83;47.34;98799.53;2083244;28;20031;-53
2022/07/02 01:26:25;;;;;;;;;;;;;;;28.84;47.43;98806.66;2085346;28;19939;-50
2022/07/02 01:27:26;;;;;;;;;;;;;;;28.83;47.51;98811.28;2083884;28;19928;-51
2022/07/02 01:28:27;;;;;;;;;;;;;;;28.84;47.49;98809.41;2086399;28;19972;-48
2022/07/02 01:29:29;;;;;;;;;;;;;;;28.83;47.34;98805.00;2083351;28;19936;-49
2022/07/02 01:30:31;;;;;;;;;;;;;;;28.82;47.51;98803.38;2084177;28;19935;-50
2022/07/02 01:31:31;;;;;;;;;;;;;;;28.81;47.27;98805.28;2083904;28;19929;-49
2022/07/02 01:32:33;;;;;;;;;;;;;;;28.84;47.43;98812.13;2083634;28;19943;-51
2022/07/02 01:33:34;;;;;;;;;;;;;;;28.84;47.36;98806.66;2081111;28;20011;-50
2022/07/02 01:34:37;;;;;;;;;;;;;;;28.82;47.48;98804.19;2084686;28;20034;-51
2022/07/02 01:35:38;;;;;;;;;;;;;;;28.84;47.47;98803.94;2084480;28;19941;-51
2022/07/02 01:36:39;;;;;;;;;;;;;;;28.84;47.32;98806.66;2086114;28;19940;-48
2022/07/02 01:37:41;;;;;;;;;;;;;;;28.82;47.51;98808.84;2083427;28;19928;-52
2022/07/02 01:38:43;;;;;;;;;;;;;;;28.83;47.39;98805.00;2088950;28;20043;-51
2022/07/02 01:39:44;;;;;;;;;;;;;;;28.83;47.37;98805.00;2080148;28;19935;-54
2022/07/02 01:40:46;;;;;;;;;;;;;;;28.82;47.49;98806.09;2083669;28;19972;-52
2022/07/02 01:41:47;;;;;;;;;;;;;;;28.82;47.43;98806.09;2084744;28;19928;-51
2022/07/02 01:42:48;;;;;;;;;;;;;;;28.81;47.52;98812.66;2086868;28;19928;-56
2022/07/02 01:43:49;;;;;;;;;;;;;;;28.79;47.51;98806.63;2084802;28;19933;-51
2022/07/02 01:44:51;;;;;;;;;;;;;;;28.80;47.57;98808.28;2084989;28;20624;-54
2022/07/02 01:45:52;;;;;;;;;;;;;;;28.80;47.25;98806.34;2081104;28;19961;-52
2022/07/02 01:46:54;;;;;;;;;;;;;;;28.81;47.72;98808.03;2084299;28;19928;-54
2022/07/02 01:47:55;;;;;;;;;;;;;;;28.80;47.39;98806.34;2086368;28;19925;-53
2022/07/02 01:48:56;;;;;;;;;;;;;;;28.81;47.35;98807.22;2085251;28;19928;-51
2022/07/02 01:49:58;;;;;;;;;;;;;;;28.78;47.24;98803.09;2083383;28;19935;-55
2022/07/02 01:50:58;;;;;;;;;;;;;;;28.80;47.54;98805.53;2085053;28;20031;-53
2022/07/02 01:52:00;;;;;;;;;;;;;;;28.79;47.37;98799.28;2085753;28;20956;-51
2022/07/02 01:53:02;;;;;;;;;;;;;;;28.81;47.43;98805.28;2086094;28;20539;-52
2022/07/02 01:54:04;;;;;;;;;;;;;;;28.79;47.45;98802.00;2083719;28;19963;-54
2022/07/02 01:55:06;;;;;;;;;;;;;;;28.79;47.24;98807.47;2084962;28;19935;-51
2022/07/02 01:56:07;;;;;;;;;;;;;;;28.78;47.43;98803.09;2086237;28;20554;-54
2022/07/02 01:57:08;;;;;;;;;;;;;;;28.78;47.29;98797.63;2085944;28;19978;-55
2022/07/02 01:58:09;;;;;;;;;;;;;;;28.79;47.39;98803.91;2087188;28;19928;-54
2022/07/02 01:59:10;;;;;;;;;;;;;;;28.79;47.24;98803.91;2084898;28;20043;-54
2022/07/02 02:00:12;;;;;;;;;;;;;;;28.78;47.50;98807.72;2085365;28;19928;-54
2022/07/02 02:01:13;;;;;;;;;;;;;;;28.77;47.37;98812.34;2083277;28;19933;-53
2022/07/02 02:02:14;;;;;;;;;;;;;;;28.78;47.26;98807.72;2086133;28;19928;-50
2022/07/02 02:03:15;;;;;;;;;;;;;;;28.77;47.24;98817.81;2088166;28;20618;-50
2022/07/02 02:04:16;;;;;;;;;;;;;;;28.78;47.32;98813.16;2089185;28;19936;-51
2022/07/02 02:05:18;;;;;;;;;;;;;;;28.77;47.56;98814.28;2088294;28;20077;-53
2022/07/02 02:06:18;;;;;;;;;;;;;;;28.78;47.66;98815.91;2081037;28;20504;-50
2022/07/02 02:07:20;;;;;;;;;;;;;;;28.77;47.54;98815.09;2085938;28;19932;-49
2022/07/02 02:08:22;;;;;;;;;;;;;;;28.78;47.37;98818.63;2086499;28;20021;-51
2022/07/02 02:09:24;;;;;;;;;;;;;;;28.77;47.36;98817.81;2081166;28;20038;-52
2022/07/02 02:10:24;;;;;;;;;;;;;;;28.76;47.54;98815.38;2082217;28;19932;-52
2022/07/02 02:11:26;;;;;;;;;;;;;;;28.74;47.53;98821.91;2081837;28;19929;-52
2022/07/02 02:12:26;;;;;;;;;;;;;;;28.77;47.53;98827.91;2083480;28;21520;-51
2022/07/02 02:13:28;;;;;;;;;;;;;;;28.74;47.57;98821.91;2084548;28;19932;-53
2022/07/02 02:14:30;;;;;;;;;;;;;;;28.76;47.32;98826.28;2086045;28;19947;-51
2022/07/02 02:15:30;;;;;;;;;;;;;;;28.77;47.42;98830.66;2085386;28;19935;-53
2022/07/02 02:16:32;;;;;;;;;;;;;;;28.76;47.22;98821.66;2084871;28;20031;-51
2022/07/02 02:17:34;;;;;;;;;;;;;;;28.75;47.54;98819.97;2087003;28;19928;-53
2022/07/02 02:18:34;;;;;;;;;;;;;;;28.73;47.34;98827.63;2090039;28;19932;-50
2022/07/02 02:19:36;;;;;;;;;;;;;;;28.74;47.45;98821.91;2089453;28;19960;-48
2022/07/02 02:20:38;;;;;;;;;;;;;;;28.73;47.63;98824.91;2090478;28;19933;-50
2022/07/02 02:21:40;;;;;;;;;;;;;;;28.75;47.53;98825.44;2090109;28;20473;-50
2022/07/02 02:22:40;;;;;;;;;;;;;;;28.73;47.38;98822.19;2089652;28;20497;-48
2022/07/02 02:23:43;;;;;;;;;;;;;;;28.72;47.37;98825.97;2089840;28;20038;-51
2022/07/02 02:24:44;;;;;;;;;;;;;;;28.74;47.50;98826.53;2091181;28;19924;-51
2022/07/02 02:25:45;;;;;;;;;;;;;;;28.72;47.27;98831.44;2090569;28;19931;-49
2022/07/02 02:26:46;;;;;;;;;;;;;;;28.70;47.65;98834.44;2091092;28;19925;-50
2022/07/02 02:27:47;;;;;;;;;;;;;;;28.71;47.44;98838.81;2090930;28;19979;-52
2022/07/02 02:28:48;;;;;;;;;;;;;;;28.73;47.61;98839.38;2089865;28;19932;-49
2022/07/02 02:29:50;;;;;;;;;;;;;;;28.72;47.42;98831.44;2090638;28;19966;-49
2022/07/02 02:30:50;;;;;;;;;;;;;;;28.73;47.48;98836.63;2091523;28;19928;-48
2022/07/02 02:31:52;;;;;;;;;;;;;;;28.73;47.54;98831.19;2089529;28;19969;-49
2022/07/02 02:32:52;;;;;;;;;;;;;;;28.72;47.34;98829.56;2087816;28;20212;-53
2022/07/02 02:33:54;;;;;;;;;;;;;;;28.73;47.32;98827.63;2088446;28;19929;-50
2022/07/02 02:34:54;;;;;;;;;;;;;;;28.72;47.48;98825.97;2088444;28;19947;-53
2022/07/02 02:35:56;;;;;;;;;;;;;;;28.71;47.48;98832.53;2088860;28;20050;-50
2022/07/02 02:36:58;;;;;;;;;;;;;;;28.71;47.34;98835.25;2086842;28;19940;-50
2022/07/02 02:37:58;;;;;;;;;;;;;;;28.72;47.30;98834.16;2086002;28;20271;-49
2022/07/02 02:39:01;;;;;;;;;;;;;;;28.72;47.55;98836.88;2086889;28;20443;-52
2022/07/02 02:40:02;;;;;;;;;;;;;;;28.71;47.30;98836.06;2088603;28;19931;-51
2022/07/02 02:41:05;;;;;;;;;;;;;;;28.70;47.50;98833.63;2086564;28;20058;-49
2022/07/02 02:42:06;;;;;;;;;;;;;;;28.69;47.46;98830.06;2081450;28;19925;-50
2022/07/02 02:43:07;;;;;;;;;;;;;;;28.71;47.38;98829.81;2086424;28;19968;-49
2022/07/02 02:44:08;;;;;;;;;;;;;;;28.70;47.62;98833.63;2086888;28;19929;-51
2022/07/02 02:45:10;;;;;;;;;;;;;;;28.70;47.48;98833.63;2087444;28;20358;-53
2022/07/02 02:46:11;;;;;;;;;;;;;;;28.70;47.37;98831.72;2088733;28;19928;-50
2022/07/02 02:47:12;;;;;;;;;;;;;;;28.71;47.48;98829.81;2087616;28;19933;-51
2022/07/02 02:48:13;;;;;;;;;;;;;;;28.69;47.44;98838.25;2087636;28;19928;-51
2022/07/02 02:49:14;;;;;;;;;;;;;;;28.70;47.52;98828.16;2089687;28;19932;-48
2022/07/02 02:50:15;;;;;;;;;;;;;;;28.67;47.31;98829.53;2089273;28;19932;-51
2022/07/02 02:51:16;;;;;;;;;;;;;;;28.68;47.45;98835.78;2087535;28;20746;-50
2022/07/02 02:52:17;;;;;;;;;;;;;;;28.68;47.50;98831.16;2086562;28;19928;-51
2022/07/02 02:53:18;;;;;;;;;;;;;;;28.69;47.44;98832.78;2090423;28;19939;-51
2022/07/02 02:54:20;;;;;;;;;;;;;;;28.71;47.40;98830.63;2090165;28;19929;-51
2022/07/02 02:55:22;;;;;;;;;;;;;;;28.69;47.25;98831.97;2086910;28;20095;-52
2022/07/02 02:56:22;;;;;;;;;;;;;;;28.70;47.41;98839.09;2088904;28;20075;-53
2022/07/02 02:57:24;;;;;;;;;;;;;;;28.66;47.43;98838.78;2087241;28;19968;-48
2022/07/02 02:58:25;;;;;;;;;;;;;;;28.67;47.57;98842.34;2090360;28;21316;-52
2022/07/02 02:59:26;;;;;;;;;;;;;;;28.68;47.68;98841.25;2089201;28;20047;-51
2022/07/02 03:00:27;;;;;;;;;;;;;;;28.67;47.35;98840.44;2088810;28;19925;-51
2022/07/02 03:01:29;;;;;;;;;;;;;;;28.67;47.54;98840.44;2089611;28;19997;-49
2022/07/02 03:02:29;;;;;;;;;;;;;;;28.68;47.38;98846.72;2088482;28;19932;-51
2022/07/02 03:03:31;;;;;;;;;;;;;;;28.65;47.61;98845.34;2091014;28;19935;-48
2022/07/02 03:04:31;;;;;;;;;;;;;;;28.66;47.43;98841.50;2090607;28;19928;-50
2022/07/02 03:05:33;;;;;;;;;;;;;;;28.67;47.52;98847.81;2086952;28;19959;-51
2022/07/02 03:06:33;;;;;;;;;;;;;;;28.64;47.59;98846.44;2088277;28;19932;-50
2022/07/02 03:07:35;;;;;;;;;;;;;;;28.65;47.26;98842.59;2088194;28;19928;-51
2022/07/02 03:08:37;;;;;;;;;;;;;;;28.66;47.54;98844.22;2086261;28;19925;-49
2022/07/02 03:09:39;;;;;;;;;;;;;;;28.66;47.37;98849.69;2089087;28;19929;-51
2022/07/02 03:10:40;;;;;;;;;;;;;;;28.66;47.53;98844.22;2091005;28;19924;-49
2022/07/02 03:11:41;;;;;;;;;;;;;;;28.66;47.29;98851.59;2089903;28;19936;-48
2022/07/02 03:12:43;;;;;;;;;;;;;;;28.64;47.38;98846.44;2090254;28;19947;-49
2022/07/02 03:13:43;;;;;;;;;;;;;;;28.64;47.27;98840.13;2089328;28;20306;-51
2022/07/02 03:14:45;;;;;;;;;;;;;;;28.65;47.46;98849.97;2091043;28;19929;-49
2022/07/02 03:15:45;;;;;;;;;;;;;;;28.65;47.38;98853.53;2087901;28;20588;-48
2022/07/02 03:16:47;;;;;;;;;;;;;;;28.64;47.39;98853.78;2088714;28;19928;-51
2022/07/02 03:17:48;;;;;;;;;;;;;;;28.63;47.43;98850.22;2088091;28;19929;-48
2022/07/02 03:18:49;;;;;;;;;;;;;;;28.62;47.55;98843.13;2086729;28;19928;-48
2022/07/02 03:19:51;;;;;;;;;;;;;;;28.63;47.36;98852.13;2088878;28;19936;-49
2022/07/02 03:20:52;;;;;;;;;;;;;;;28.63;47.39;98852.13;2091123;28;19997;-52
2022/07/02 03:21:53;;;;;;;;;;;;;;;28.63;47.65;98847.50;2089924;28;20413;-48
2022/07/02 03:22:54;;;;;;;;;;;;;;;28.64;47.49;98853.78;2090602;28;19924;-48
2022/07/02 03:23:55;;;;;;;;;;;;;;;28.63;47.20;98852.94;2090480;28;19936;-48
2022/07/02 03:24:58;;;;;;;;;;;;;;;28.64;47.28;98851.03;2089052;28;20406;-48
2022/07/02 03:25:59;;;;;;;;;;;;;;;28.63;47.36;98847.50;2087871;28;19924;-50
2022/07/02 03:27:00;;;;;;;;;;;;;;;28.61;47.35;98852.41;2088218;28;19983;-51
2022/07/02 03:28:01;;;;;;;;;;;;;;;28.62;47.26;98851.31;2085384;28;19925;-51
2022/07/02 03:29:02;;;;;;;;;;;;;;;28.62;47.36;98854.06;2084837;28;19932;-51
2022/07/02 03:30:04;;;;;;;;;;;;;;;28.63;47.46;98855.69;2088470;28;19986;-54
2022/07/02 03:31:05;;;;;;;;;;;;;;;28.64;47.39;98851.88;2085558;28;21240;-49
2022/07/02 03:32:06;;;;;;;;;;;;;;;28.63;47.21;98852.94;2084324;28;19939;-54
2022/07/02 03:33:08;;;;;;;;;;;;;;;28.62;47.14;98851.31;2084607;28;19947;-53
2022/07/02 03:34:08;;;;;;;;;;;;;;;28.61;47.48;98849.69;2084450;28;19962;-51
2022/07/02 03:35:10;;;;;;;;;;;;;;;28.62;47.26;98853.22;2086669;28;19967;-50
2022/07/02 03:36:11;;;;;;;;;;;;;;;28.62;47.64;98855.97;2085585;28;22139;-52
2022/07/02 03:37:12;;;;;;;;;;;;;;;28.61;47.57;98860.59;2085129;28;19938;-52
2022/07/02 03:38:14;;;;;;;;;;;;;;;28.60;47.35;98855.41;2083287;28;19978;-52
2022/07/02 03:39:14;;;;;;;;;;;;;;;28.61;47.47;98857.88;2085246;28;20048;-51
2022/07/02 03:40:18;;;;;;;;;;;;;;;28.59;47.42;98865.50;2083618;28;20448;-51
2022/07/02 03:41:18;;;;;;;;;;;;;;;28.56;47.31;98852.38;2085450;28;19928;-52
2022/07/02 03:42:20;;;;;;;;;;;;;;;28.59;47.34;98857.31;2084268;28;19938;-51
2022/07/02 03:43:20;;;;;;;;;;;;;;;28.58;47.66;98858.38;2083724;28;19925;-53
2022/07/02 03:44:22;;;;;;;;;;;;;;;28.61;47.29;98860.59;2084156;28;20686;-52
2022/07/02 03:45:22;;;;;;;;;;;;;;;28.59;47.24;98857.31;2085416;28;20169;-53
2022/07/02 03:46:24;;;;;;;;;;;;;;;28.59;47.37;98857.31;2083605;28;19939;-49
2022/07/02 03:47:24;;;;;;;;;;;;;;;28.59;47.19;98862.78;2084639;28;19928;-50
2022/07/02 03:48:26;;;;;;;;;;;;;;;28.59;47.50;98865.50;2084706;28;20393;-50
2022/07/02 03:49:27;;;;;;;;;;;;;;;28.57;47.44;98856.75;2084993;28;20003;-49
2022/07/02 03:50:28;;;;;;;;;;;;;;;28.58;47.23;98866.56;2085254;28;20154;-48
2022/07/02 03:51:29;;;;;;;;;;;;;;;28.57;47.18;98870.38;2086035;28;19982;-50
2022/07/02 03:52:30;;;;;;;;;;;;;;;28.58;47.41;98863.84;2083961;28;20005;-49
2022/07/02 03:53:31;;;;;;;;;;;;;;;28.59;47.43;98865.50;2085481;28;19929;-48
2022/07/02 03:54:32;;;;;;;;;;;;;;;28.58;47.53;98871.22;2084932;28;20373;-50
2022/07/02 03:55:35;;;;;;;;;;;;;;;28.58;47.22;98868.47;2080873;28;19936;-49
2022/07/02 03:56:36;;;;;;;;;;;;;;;28.56;47.44;98870.66;2085364;28;19928;-49
2022/07/02 03:57:37;;;;;;;;;;;;;;;28.57;47.27;98862.22;2084847;28;20354;-49
2022/07/02 03:58:38;;;;;;;;;;;;;;;28.56;47.52;98866.03;2084963;28;19932;-48
2022/07/02 03:59:39;;;;;;;;;;;;;;;28.57;47.39;98864.13;2084728;28;19933;-48
2022/07/02 04:00:40;;;;;;;;;;;;;;;28.56;47.46;98868.75;2084951;28;19943;-50
2022/07/02 04:01:41;;;;;;;;;;;;;;;28.56;47.65;98878.84;2084522;28;19955;-52
2022/07/02 04:02:43;;;;;;;;;;;;;;;28.56;47.49;98871.47;2087566;28;20588;-49
2022/07/02 04:03:43;;;;;;;;;;;;;;;28.56;47.31;98874.22;2083893;28;19932;-49
2022/07/02 04:04:45;;;;;;;;;;;;;;;28.56;47.44;98876.13;2082831;28;20638;-48
2022/07/02 04:05:45;;;;;;;;;;;;;;;28.54;47.41;98884.56;2084409;28;19924;-47
2022/07/02 04:06:47;;;;;;;;;;;;;;;28.56;47.61;98887.03;2085071;28;19935;-47
2022/07/02 04:07:47;;;;;;;;;;;;;;;28.54;47.53;98879.09;2086788;28;19928;-48
2022/07/02 04:08:49;;;;;;;;;;;;;;;28.53;47.48;98877.47;2086612;28;19931;-49
2022/07/02 04:09:50;;;;;;;;;;;;;;;28.55;47.34;98886.19;2087881;28;19935;-49
2022/07/02 04:10:53;;;;;;;;;;;;;;;28.55;47.24;98879.94;2086068;28;20418;-51
2022/07/02 04:11:53;;;;;;;;;;;;;;;28.55;47.50;98882.66;2085668;28;20335;-48
2022/07/02 04:12:55;;;;;;;;;;;;;;;28.54;47.20;98878.28;2083611;28;19929;-48
2022/07/02 04:13:55;;;;;;;;;;;;;;;28.54;47.38;98879.09;2085076;28;19939;-49
2022/07/02 04:14:57;;;;;;;;;;;;;;;28.51;47.49;98879.63;2085874;28;19928;-48
2022/07/02 04:15:57;;;;;;;;;;;;;;;28.52;47.36;98878.53;2084359;28;20835;-50
2022/07/02 04:16:59;;;;;;;;;;;;;;;28.52;47.62;98873.09;2085551;28;20018;-46
2022/07/02 04:17:59;;;;;;;;;;;;;;;28.50;47.29;98880.69;2089573;28;19940;-50
2022/07/02 04:19:01;;;;;;;;;;;;;;;28.51;47.48;98880.44;2084416;28;19928;-52
2022/07/02 04:20:02;;;;;;;;;;;;;;;28.50;47.28;98880.69;2085349;28;19929;-49
2022/07/02 04:21:03;;;;;;;;;;;;;;;28.49;47.52;98877.16;2085780;28;19928;-49
2022/07/02 04:22:05;;;;;;;;;;;;;;;28.49;47.48;98881.78;2085486;28;20342;-52
2022/07/02 04:23:07;;;;;;;;;;;;;;;28.50;47.42;98872.50;2084995;28;19935;-49
2022/07/02 04:24:08;;;;;;;;;;;;;;;28.50;47.78;98877.97;2085880;28;20307;-48
2022/07/02 04:25:09;;;;;;;;;;;;;;;28.49;47.57;98877.16;2086708;28;19957;-52
2022/07/02 04:26:12;;;;;;;;;;;;;;;28.47;47.39;98879.34;2086617;28;19932;-52
2022/07/02 04:27:12;;;;;;;;;;;;;;;28.47;47.58;98871.16;2089883;28;19928;-48
2022/07/02 04:28:14;;;;;;;;;;;;;;;28.48;47.73;98877.44;2087559;28;19967;-50
2022/07/02 04:29:14;;;;;;;;;;;;;;;28.47;47.46;98873.91;2084264;28;21166;-49
2022/07/02 04:30:16;;;;;;;;;;;;;;;28.47;47.33;98867.59;2087386;28;19933;-50
2022/07/02 04:31:16;;;;;;;;;;;;;;;28.46;47.67;98864.03;2086946;28;19925;-48
2022/07/02 04:32:18;;;;;;;;;;;;;;;28.48;47.55;98869.25;2085061;28;20151;-50
2022/07/02 04:33:18;;;;;;;;;;;;;;;28.48;47.55;98861.06;2087390;28;20694;-49
2022/07/02 04:34:20;;;;;;;;;;;;;;;28.46;47.52;98866.78;2088332;28;19925;-47
2022/07/02 04:35:21;;;;;;;;;;;;;;;28.47;47.55;98862.13;2086222;28;22198;-48
2022/07/02 04:36:22;;;;;;;;;;;;;;;28.46;47.31;98866.78;2087654;28;19928;-48
2022/07/02 04:37:23;;;;;;;;;;;;;;;28.47;47.56;98867.59;2089450;28;19928;-47
2022/07/02 04:38:25;;;;;;;;;;;;;;;28.47;47.55;98870.31;2086259;28;19935;-49
2022/07/02 04:39:25;;;;;;;;;;;;;;;28.47;47.62;98868.44;2087092;28;19935;-50
2022/07/02 04:40:27;;;;;;;;;;;;;;;28.46;47.38;98880.41;2088903;28;19942;-52
2022/07/02 04:41:29;;;;;;;;;;;;;;;28.45;47.30;98875.22;2090477;28;19932;-49
2022/07/02 04:42:30;;;;;;;;;;;;;;;28.47;47.65;98875.78;2089687;28;19983;-49
2022/07/02 04:43:31;;;;;;;;;;;;;;;28.47;47.71;98875.78;2090934;28;19928;-48
2022/07/02 04:44:32;;;;;;;;;;;;;;;28.45;47.51;98876.06;2089342;28;19932;-49
2022/07/02 04:45:33;;;;;;;;;;;;;;;28.47;47.43;98875.78;2090637;28;19924;-53
2022/07/02 04:46:34;;;;;;;;;;;;;;;28.45;47.58;98872.50;2089592;28;19972;-52
2022/07/02 04:47:35;;;;;;;;;;;;;;;28.43;47.68;98871.94;2088690;28;19936;-52
2022/07/02 04:48:38;;;;;;;;;;;;;;;28.43;47.70;98871.94;2086248;28;20293;-49
2022/07/02 04:49:38;;;;;;;;;;;;;;;28.42;47.75;98867.56;2083759;28;19929;-48
2022/07/02 04:50:40;;;;;;;;;;;;;;;28.43;47.62;98871.94;2087570;28;19931;-51
2022/07/02 04:51:40;;;;;;;;;;;;;;;28.42;47.56;98870.28;2083656;28;20023;-48
2022/07/02 04:52:42;;;;;;;;;;;;;;;28.43;47.60;98874.66;2081250;28;20084;-49
2022/07/02 04:53:42;;;;;;;;;;;;;;;28.42;47.70;98875.72;2082190;28;20691;-50
2022/07/02 04:54:44;;;;;;;;;;;;;;;28.44;47.56;98876.31;2083666;28;19939;-49
2022/07/02 04:55:44;;;;;;;;;;;;;;;28.43;47.34;98874.66;2086863;28;19925;-50
2022/07/02 04:56:48;;;;;;;;;;;;;;;28.44;47.44;98881.75;2088752;28;20623;-51
2022/07/02 04:57:49;;;;;;;;;;;;;;;28.42;47.79;98882.03;2086342;28;19985;-49
2022/07/02 04:58:51;;;;;;;;;;;;;;;28.42;47.74;98882.03;2084716;28;19990;-47
2022/07/02 04:59:51;;;;;;;;;;;;;;;28.43;47.62;98877.41;2083035;28;19932;-49
2022/07/02 05:00:53;;;;;;;;;;;;;;;28.44;47.34;98884.50;2081542;28;20425;-51
2022/07/02 05:01:53;;;;;;;;;;;;;;;28.42;47.59;98881.19;2082858;28;20964;-49
2022/07/02 05:02:55;;;;;;;;;;;;;;;28.41;47.57;98882.25;2086517;28;19938;-48
2022/07/02 05:03:57;;;;;;;;;;;;;;;28.42;47.42;98889.38;2084597;28;20023;-51
2022/07/02 05:04:57;;;;;;;;;;;;;;;28.42;47.38;98895.69;2083224;28;20031;-47
2022/07/02 05:05:59;;;;;;;;;;;;;;;28.41;47.62;98890.44;2084750;28;20089;-48
2022/07/02 05:06:59;;;;;;;;;;;;;;;28.40;47.74;98894.25;2082850;28;19928;-48
2022/07/02 05:08:01;;;;;;;;;;;;;;;28.39;47.62;98893.44;2080070;28;20127;-48
2022/07/02 05:09:02;;;;;;;;;;;;;;;28.39;47.50;98892.59;2082733;28;19936;-47
2022/07/02 05:10:04;;;;;;;;;;;;;;;28.40;47.58;98894.25;2085943;28;20017;-49
2022/07/02 05:11:04;;;;;;;;;;;;;;;28.40;47.53;98897.00;2082511;28;19932;-49
2022/07/02 05:12:08;;;;;;;;;;;;;;;28.38;47.48;98893.69;2087006;28;19935;-52
2022/07/02 05:13:09;;;;;;;;;;;;;;;28.39;47.46;98893.44;2088115;28;20395;-50
2022/07/02 05:14:11;;;;;;;;;;;;;;;28.39;47.58;98903.50;2089279;28;19998;-48
2022/07/02 05:15:11;;;;;;;;;;;;;;;28.38;47.83;98901.88;2086830;28;19931;-46
2022/07/02 05:16:13;;;;;;;;;;;;;;;28.38;47.71;98907.34;2088232;28;19964;-51
2022/07/02 05:17:13;;;;;;;;;;;;;;;28.37;47.48;98909.25;2085355;28;19975;-47
2022/07/02 05:18:15;;;;;;;;;;;;;;;28.38;47.71;98905.44;2084750;28;20456;-48
2022/07/02 05:19:16;;;;;;;;;;;;;;;28.38;47.37;98918.25;2085438;28;20227;-52
2022/07/02 05:20:18;;;;;;;;;;;;;;;28.36;47.87;98906.75;2082769;28;19963;-53
2022/07/02 05:21:18;;;;;;;;;;;;;;;28.38;47.57;98912.78;2083064;28;20471;-52
2022/07/02 05:22:20;;;;;;;;;;;;;;;28.35;47.39;98903.22;2082997;28;20003;-51
2022/07/02 05:23:20;;;;;;;;;;;;;;;28.37;47.58;98902.97;2085308;28;19932;-54